createdAt,value
2023-02-08T00:00:46.416Z,-3.34
2023-02-08T00:03:31.980Z,-2.35
2023-02-08T00:06:18.219Z,-2.18
2023-02-08T00:09:03.830Z,-2.23
2023-02-08T00:11:49.562Z,-3.87
2023-02-08T00:14:34.860Z,-2.36
2023-02-08T00:17:20.543Z,-2.48
2023-02-08T00:20:06.894Z,-3.88
2023-02-08T00:22:53.428Z,-3.85
2023-02-08T00:25:40.550Z,-2.50
2023-02-08T00:28:26.886Z,-2.61
2023-02-08T00:31:12.440Z,-3.55
2023-02-08T00:34:00.003Z,-3.66
2023-02-08T00:36:45.488Z,-3.03
2023-02-08T00:39:31.797Z,-2.85
2023-02-08T00:42:17.117Z,-2.91
2023-02-08T00:45:02.382Z,-3.02
2023-02-08T00:47:47.939Z,-2.76
2023-02-08T00:50:33.249Z,-2.69
2023-02-08T00:53:18.769Z,-2.73
2023-02-08T00:56:04.712Z,-4.26
2023-02-08T00:58:51.123Z,-4.02
2023-02-08T01:01:37.385Z,-3.30
2023-02-08T01:04:23.073Z,-3.02
2023-02-08T01:07:08.866Z,-3.76
2023-02-08T01:09:56.740Z,-3.33
2023-02-08T01:12:42.617Z,-3.23
2023-02-08T01:15:28.588Z,-4.74
2023-02-08T01:18:14.275Z,-3.54
2023-02-08T01:21:06.077Z,-3.53
2023-02-08T01:23:51.835Z,-3.37
2023-02-08T01:26:38.184Z,-4.92
2023-02-08T01:29:25.915Z,-3.47
2023-02-08T01:32:11.778Z,-3.60
2023-02-08T01:34:57.190Z,-5.08
2023-02-08T01:37:42.948Z,-4.98
2023-02-08T01:40:29.053Z,-3.99
2023-02-08T01:43:32.223Z,-4.78
2023-02-08T01:46:21.180Z,-3.60
2023-02-08T01:49:29.867Z,-3.51
2023-02-08T01:52:19.148Z,-3.68
2023-02-08T01:55:25.687Z,-3.58
2023-02-08T01:58:12.816Z,-3.63
2023-02-08T02:01:02.545Z,-4.36
2023-02-08T02:03:48.616Z,-4.24
2023-02-08T02:06:39.460Z,-3.83
2023-02-08T02:09:31.536Z,-3.92
2023-02-08T02:12:18.932Z,-3.94
2023-02-08T02:15:05.667Z,-4.83
2023-02-08T02:17:51.114Z,-3.89
2023-02-08T02:21:03.798Z,-4.16
2023-02-08T02:24:04.065Z,-3.95
2023-02-08T02:27:04.868Z,-3.98
2023-02-08T02:30:00.744Z,-3.97
2023-02-08T02:33:10.618Z,-3.95
2023-02-08T02:36:16.111Z,-3.96
2023-02-08T02:39:25.165Z,-4.08
2023-02-08T02:42:52.653Z,-4.00
2023-02-08T02:45:56.905Z,-4.27
2023-02-08T02:48:50.405Z,-3.98
2023-02-08T02:52:02.253Z,-3.94
2023-02-08T02:54:53.059Z,-3.99
2023-02-08T02:57:41.761Z,-3.94
2023-02-08T03:00:31.133Z,-3.90
2023-02-08T03:03:23.109Z,-3.84
2023-02-08T03:06:14.387Z,-3.86
2023-02-08T03:09:26.652Z,-3.87
2023-02-08T03:12:31.457Z,-3.91
2023-02-08T03:15:41.777Z,-3.92
2023-02-08T03:19:17.752Z,-3.92
2023-02-08T03:22:13.389Z,-4.03
2023-02-08T03:25:24.204Z,-3.88
2023-02-08T03:28:31.460Z,-5.40
2023-02-08T03:31:40.022Z,-3.81
2023-02-08T03:34:53.188Z,-3.81
2023-02-08T03:37:47.178Z,-5.24
2023-02-08T03:40:37.894Z,-4.01
2023-02-08T03:43:33.657Z,-3.74
2023-02-08T03:46:27.591Z,-3.73
2023-02-08T03:49:23.785Z,-3.73
2023-02-08T03:52:11.169Z,-5.25
2023-02-08T03:55:12.768Z,-5.18
2023-02-08T03:58:40.683Z,-3.68
2023-02-08T04:01:51.577Z,-3.64
2023-02-08T04:04:42.378Z,-3.90
2023-02-08T04:07:27.923Z,-5.17
2023-02-08T04:10:13.714Z,-3.66
2023-02-08T04:12:59.716Z,-3.68
2023-02-08T04:15:45.017Z,-3.72
2023-02-08T04:18:31.416Z,-3.82
2023-02-08T04:21:17.258Z,-3.87
2023-02-08T04:24:03.530Z,-3.81
2023-02-08T04:26:50.092Z,-3.77
2023-02-08T04:29:35.644Z,-3.87
2023-02-08T04:32:21.332Z,-4.24
2023-02-08T04:35:06.833Z,-5.54
2023-02-08T04:37:52.529Z,-5.33
2023-02-08T04:40:38.337Z,-4.20
2023-02-08T04:43:23.940Z,-4.08
2023-02-08T04:46:09.339Z,-3.97
2023-02-08T04:48:54.962Z,-5.41
2023-02-08T04:51:43.213Z,-4.17
2023-02-08T04:54:28.934Z,-5.49
2023-02-08T04:57:15.351Z,-4.35
2023-02-08T05:00:00.820Z,-4.35
2023-02-08T05:02:46.383Z,-4.15
2023-02-08T05:05:32.949Z,-4.20
2023-02-08T05:08:18.511Z,-4.40
2023-02-08T05:11:10.819Z,-4.22
2023-02-08T05:14:00.904Z,-4.10
2023-02-08T05:16:46.509Z,-4.13
2023-02-08T05:19:32.354Z,-4.19
2023-02-08T05:22:18.070Z,-4.22
2023-02-08T05:25:03.894Z,-4.26
2023-02-08T05:27:50.264Z,-4.31
2023-02-08T05:30:38.610Z,-5.92
2023-02-08T05:33:24.335Z,-4.71
2023-02-08T05:36:10.484Z,-5.07
2023-02-08T05:38:56.180Z,-4.69
2023-02-08T05:41:41.759Z,-4.76
2023-02-08T05:44:27.217Z,-5.04
2023-02-08T05:47:13.135Z,-5.01
2023-02-08T05:49:59.229Z,-5.13
2023-02-08T05:52:45.362Z,-5.38
2023-02-08T05:55:30.943Z,-5.36
2023-02-08T05:58:17.114Z,-5.45
2023-02-08T06:01:11.102Z,-6.91
2023-02-08T06:03:59.769Z,-5.44
2023-02-08T06:06:45.685Z,-7.08
2023-02-08T06:09:31.478Z,-5.66
2023-02-08T06:12:17.583Z,-5.51
2023-02-08T06:15:03.158Z,-5.72
2023-02-08T06:17:48.600Z,-5.69
2023-02-08T06:20:34.066Z,-7.31
2023-02-08T06:23:19.388Z,-5.91
2023-02-08T06:26:05.690Z,-7.31
2023-02-08T06:28:52.395Z,-5.85
2023-02-08T06:31:38.047Z,-5.99
2023-02-08T06:34:24.024Z,-6.36
2023-02-08T06:37:09.700Z,-8.28
2023-02-08T06:39:55.162Z,-6.88
2023-02-08T06:42:40.659Z,-8.49
2023-02-08T06:45:27.464Z,-7.17
2023-02-08T06:48:13.740Z,-7.01
2023-02-08T06:51:01.136Z,-7.15
2023-02-08T06:53:46.818Z,-6.39
2023-02-08T06:56:32.487Z,-5.89
2023-02-08T06:59:18.082Z,-6.78
2023-02-08T07:02:03.688Z,-5.21
2023-02-08T07:04:53.734Z,-4.96
2023-02-08T07:07:39.931Z,-5.51
2023-02-08T07:10:25.943Z,-4.43
2023-02-08T07:13:11.983Z,-4.23
2023-02-08T07:15:58.149Z,-4.17
2023-02-08T07:18:44.699Z,-3.88
2023-02-08T07:21:30.253Z,-3.85
2023-02-08T07:24:15.753Z,-3.79
2023-02-08T07:27:01.797Z,-5.08
2023-02-08T07:29:47.273Z,-5.04
2023-02-08T07:32:34.690Z,-3.52
2023-02-08T07:35:20.129Z,-4.87
2023-02-08T07:38:05.478Z,-3.17
2023-02-08T07:40:51.002Z,-2.96
2023-02-08T07:43:37.641Z,-3.00
2023-02-08T07:46:39.520Z,-3.00
2023-02-08T07:49:27.131Z,-3.05
2023-02-08T07:52:12.693Z,-3.27
2023-02-08T07:54:58.972Z,-3.31
2023-02-08T07:57:49.233Z,-4.59
2023-02-08T08:00:34.744Z,-3.37
2023-02-08T08:03:20.593Z,-3.36
2023-02-08T08:06:06.997Z,-4.20
2023-02-08T08:08:52.845Z,-4.22
2023-02-08T08:11:38.455Z,-4.03
2023-02-08T08:14:24.061Z,-2.41
2023-02-08T08:17:12.301Z,-2.44
2023-02-08T08:19:58.207Z,-2.16
2023-02-08T08:22:43.574Z,-3.31
2023-02-08T08:25:29.280Z,-3.38
2023-02-08T08:28:15.620Z,-1.61
2023-02-08T08:31:02.179Z,-1.35
2023-02-08T08:33:48.526Z,-1.62
2023-02-08T08:36:36.925Z,-2.42
2023-02-08T08:39:23.904Z,-1.04
2023-02-08T08:42:09.298Z,-1.16
2023-02-08T08:44:56.137Z,-0.98
2023-02-08T08:47:42.864Z,-0.90
2023-02-08T08:50:28.720Z,-0.63
2023-02-08T08:53:14.865Z,-0.55
2023-02-08T08:56:01.348Z,-0.60
2023-02-08T08:58:47.072Z,-0.47
2023-02-08T09:01:34.415Z,-0.58
2023-02-08T09:04:22.872Z,-0.73
2023-02-08T09:07:10.680Z,-0.72
2023-02-08T09:09:56.521Z,-0.66
2023-02-08T09:12:42.222Z,-0.59
2023-02-08T09:15:28.204Z,-0.71
2023-02-08T09:18:14.212Z,-0.94
2023-02-08T09:21:15.745Z,-0.66
2023-02-08T09:24:02.789Z,-0.73
2023-02-08T09:26:49.913Z,-1.91
2023-02-08T09:29:39.640Z,-0.78
2023-02-08T09:32:30.880Z,-0.70
2023-02-08T09:35:16.816Z,-0.39
2023-02-08T09:38:04.621Z,-0.51
2023-02-08T09:41:22.675Z,-0.40
2023-02-08T09:44:30.512Z,-0.36
2023-02-08T09:47:23.272Z,-1.70
2023-02-08T09:50:21.189Z,-0.24
2023-02-08T09:53:21.542Z,-1.74
2023-02-08T09:56:12.761Z,-0.18
2023-02-08T09:59:00.794Z,-0.84
2023-02-08T10:01:49.484Z,-0.25
2023-02-08T10:05:07.883Z,-1.06
2023-02-08T10:07:54.838Z,-0.08
2023-02-08T10:11:06.792Z,0.07
2023-02-08T10:14:00.080Z,0.33
2023-02-08T10:16:59.506Z,0.27
2023-02-08T10:19:51.162Z,0.51
2023-02-08T10:22:57.026Z,0.52
2023-02-08T10:26:14.486Z,0.57
2023-02-08T10:29:30.922Z,0.59
2023-02-08T10:32:37.346Z,0.42
2023-02-08T10:35:37.358Z,-0.76
2023-02-08T10:38:45.271Z,-0.21
2023-02-08T10:41:37.344Z,0.65
2023-02-08T10:44:48.113Z,0.67
2023-02-08T10:47:46.320Z,-0.55
2023-02-08T10:50:40.243Z,0.52
2023-02-08T10:53:25.684Z,0.36
2023-02-08T10:56:30.850Z,0.47
2023-02-08T10:59:24.313Z,0.34
2023-02-08T11:02:22.738Z,0.27
2023-02-08T11:05:21.102Z,-0.99
2023-02-08T11:08:13.793Z,0.32
2023-02-08T11:11:04.268Z,-0.14
2023-02-08T11:14:07.425Z,-0.11
2023-02-08T11:16:56.930Z,-1.16
2023-02-08T11:19:46.381Z,0.10
2023-02-08T11:22:38.295Z,-1.27
2023-02-08T11:25:37.970Z,-1.36
2023-02-08T11:28:28.460Z,-0.89
2023-02-08T11:31:21.143Z,-0.36
2023-02-08T11:34:11.714Z,-0.10
2023-02-08T11:37:14.189Z,-0.22
2023-02-08T11:40:03.845Z,-1.76
2023-02-08T11:42:52.032Z,-0.42
2023-02-08T11:45:37.821Z,-0.54
2023-02-08T11:48:38.422Z,-1.09
2023-02-08T11:51:30.593Z,-0.29
2023-02-08T11:54:42.539Z,-0.15
2023-02-08T11:57:28.358Z,-0.60
2023-02-08T12:00:23.497Z,-0.31
2023-02-08T12:03:18.507Z,-0.45
2023-02-08T12:06:55.088Z,-0.31
2023-02-08T12:10:08.179Z,-0.23
2023-02-08T12:13:21.865Z,-0.41
2023-02-08T12:16:26.076Z,-0.20
2023-02-08T12:19:20.687Z,-0.26
2023-02-08T12:22:14.034Z,-0.57
2023-02-08T12:25:24.632Z,-0.39
2023-02-08T12:28:20.095Z,-0.39
2023-02-08T12:31:38.617Z,-0.42
2023-02-08T12:34:42.635Z,-0.36
2023-02-08T12:38:04.356Z,-0.41
2023-02-08T12:41:19.555Z,-0.33
2023-02-08T12:44:23.843Z,-0.32
2023-02-08T12:47:16.838Z,-0.38
2023-02-08T12:50:02.354Z,-0.28
2023-02-08T12:52:57.379Z,-0.25
2023-02-08T12:55:44.577Z,-0.33
2023-02-08T12:58:38.752Z,-1.61
2023-02-08T13:01:44.861Z,-0.12
2023-02-08T13:04:38.693Z,-0.29
2023-02-08T13:07:29.698Z,-1.09
2023-02-08T13:10:34.542Z,0.04
2023-02-08T13:13:25.082Z,0.02
2023-02-08T13:16:18.087Z,0.01
2023-02-08T13:19:23.790Z,-0.02
2023-02-08T13:22:12.827Z,-0.24
2023-02-08T13:25:07.113Z,-1.43
2023-02-08T13:27:54.118Z,-0.03
2023-02-08T13:30:40.968Z,0.06
2023-02-08T13:33:55.779Z,0.16
2023-02-08T13:36:58.159Z,-0.06
2023-02-08T13:39:46.614Z,-0.08
2023-02-08T13:42:43.127Z,-0.09
2023-02-08T13:45:42.064Z,-0.35
2023-02-08T13:48:28.181Z,-0.58
2023-02-08T13:51:33.155Z,-0.23
2023-02-08T13:54:19.210Z,-0.29
2023-02-08T13:57:48.406Z,-0.33
2023-02-08T14:00:36.813Z,-0.26
2023-02-08T14:03:27.996Z,-0.42
2023-02-08T14:06:23.873Z,-0.24
2023-02-08T14:09:28.816Z,-1.25
2023-02-08T14:12:26.746Z,0.19
2023-02-08T14:15:15.769Z,0.27
2023-02-08T14:18:02.490Z,-0.60
2023-02-08T14:21:02.045Z,0.19
2023-02-08T14:24:00.738Z,0.13
2023-02-08T14:26:46.460Z,-0.14
2023-02-08T14:29:33.062Z,-0.04
2023-02-08T14:32:30.581Z,-1.36
2023-02-08T14:35:18.353Z,0.04
2023-02-08T14:38:19.280Z,0.08
2023-02-08T14:41:05.324Z,-0.12
2023-02-08T14:43:50.943Z,-0.89
2023-02-08T14:46:40.873Z,-0.04
2023-02-08T14:49:27.731Z,-0.17
2023-02-08T14:52:22.029Z,-0.29
2023-02-08T14:55:19.938Z,-0.43
2023-02-08T14:58:09.125Z,-0.31
2023-02-08T15:00:56.456Z,-1.52
2023-02-08T15:03:43.482Z,-0.36
2023-02-08T15:06:37.833Z,-0.36
2023-02-08T15:09:38.110Z,-0.39
2023-02-08T15:12:35.803Z,-0.39
2023-02-08T15:15:21.532Z,-0.43
2023-02-08T15:18:18.982Z,-0.68
2023-02-08T15:21:08.527Z,-0.50
2023-02-08T15:24:15.270Z,-0.52
2023-02-08T15:27:00.993Z,-1.99
2023-02-08T15:29:48.679Z,-0.67
2023-02-08T15:32:35.018Z,-0.71
2023-02-08T15:35:22.939Z,-1.00
2023-02-08T15:38:19.163Z,-1.04
2023-02-08T15:41:09.580Z,-2.14
2023-02-08T15:44:22.825Z,-1.97
2023-02-08T15:47:17.406Z,-0.97
2023-02-08T15:50:06.722Z,-0.90
2023-02-08T15:52:58.789Z,-1.70
2023-02-08T15:55:50.130Z,-1.21
2023-02-08T15:58:42.043Z,-1.23
2023-02-08T16:01:31.934Z,-1.39
2023-02-08T16:04:18.042Z,-1.54
2023-02-08T16:07:03.748Z,-2.97
2023-02-08T16:09:49.609Z,-1.52
2023-02-08T16:12:38.315Z,-3.03
2023-02-08T16:15:40.067Z,-1.74
2023-02-08T16:18:47.080Z,-3.33
2023-02-08T16:21:39.067Z,-2.24
2023-02-08T16:24:27.983Z,-2.16
2023-02-08T16:27:33.845Z,-3.35
2023-02-08T16:30:24.146Z,-3.72
2023-02-08T16:33:10.042Z,-2.72
2023-02-08T16:36:07.320Z,-2.37
2023-02-08T16:39:18.648Z,-2.40
2023-02-08T16:42:31.883Z,-2.45
2023-02-08T16:45:24.850Z,-3.78
2023-02-08T16:48:36.124Z,-2.80
2023-02-08T16:51:34.803Z,-3.17
2023-02-08T16:54:26.508Z,-3.42
2023-02-08T16:57:17.695Z,-4.81
2023-02-08T17:00:12.804Z,-3.77
2023-02-08T17:03:09.228Z,-3.79
2023-02-08T17:05:57.788Z,-4.07
2023-02-08T17:08:43.755Z,-3.85
2023-02-08T17:11:29.864Z,-4.35
2023-02-08T17:14:15.796Z,-4.26
2023-02-08T17:17:01.540Z,-4.48
2023-02-08T17:19:56.111Z,-4.53
2023-02-08T17:23:15.905Z,-5.43
2023-02-08T17:26:01.795Z,-4.48
2023-02-08T17:28:50.185Z,-4.53
2023-02-08T17:31:36.890Z,-4.36
2023-02-08T17:34:24.053Z,-4.32
2023-02-08T17:37:13.486Z,-5.55
2023-02-08T17:40:05.847Z,-4.25
2023-02-08T17:42:55.959Z,-4.31
2023-02-08T17:45:44.753Z,-4.55
2023-02-08T17:48:31.854Z,-4.28
2023-02-08T17:51:26.684Z,-4.39
2023-02-08T17:54:16.699Z,-4.63
2023-02-08T17:57:05.193Z,-4.48
2023-02-08T18:00:10.485Z,-4.22
2023-02-08T18:03:26.980Z,-5.49
2023-02-08T18:06:21.387Z,-4.23
2023-02-08T18:09:11.741Z,-5.52
2023-02-08T18:12:02.195Z,-5.68
2023-02-08T18:14:49.606Z,-5.64
2023-02-08T18:17:37.198Z,-4.16
2023-02-08T18:20:26.635Z,-4.53
2023-02-08T18:23:14.718Z,-4.48
2023-02-08T18:26:09.660Z,-6.04
2023-02-08T18:28:57.972Z,-4.71
2023-02-08T18:31:44.952Z,-6.47
2023-02-08T18:34:53.418Z,-6.63
2023-02-08T18:37:51.244Z,-5.29
2023-02-08T18:40:48.910Z,-5.24
2023-02-08T18:43:37.436Z,-5.30
2023-02-08T18:46:29.098Z,-5.53
2023-02-08T18:49:17.719Z,-6.47
2023-02-08T18:52:33.411Z,-5.14
2023-02-08T18:55:21.189Z,-5.27
